Decoded Metar for PAMO (MOUNTAIN VILLAGE in AK, USA) (IATA:MOU) | Meteo·Mobile Aviation Weather
aviador You're here:

PAMO Decoded Metar

MOUNTAIN VILLAGE in AK, USA
Report Time2018-11-12 17:02:00
UTC Time2018-11-12 17:52:28
Flight Rules vfr VFR
Wind010° at 23 Gusting to 32 kt
W.Decomp.*RWY 02: 21.0 kt HW 9.4 kt LCW
W.Rank010° ranks 6
Current wind is above 010° avg. (10.0)
Visibility9999 m
Phenomena:N/A
Clouds:Scattered 060 Hf
Overcast 100 Hf
Expected CloudBase > 1,200 ft AGL from Temp-Dew spread
Ceiling10,000 ft
Temp-4°C (ISA -18)
Dew Point-7°C (80% RH)
AAT-15.1°C
QNH1003 hPa
Density Alt-1,526 ft
Elevation338 ft
Report Wrong Elevation
Raw Report
PAMO 121702Z AUTO 01023G32KT 10SM SCT060 OVC100 M04/M07 A2961 RMK
AO2 PK WND 01033/1645 SLP033 T10441072 FZRANO=

Extra information for PAMO:More info

Metar Taf Metar & Taf Last 4 Metars F.Rules Stats Wind Profile Meteogram Temp Stats Airport Information Weather charts Add Link Nearby VenuesMetar ALERT Operation Metar Decoded Social comments

AIRNAV info for PAMO